Terminal Aerodrome Forecast
Issued by NWS Denver/Boulder, CO

Home | Current Version | Previous Version | Text Only | Print | Product List | Glossary On
Versions: 1 2 3 4 5 6 7 8 9 10 11 12 13 14 15 16 17 18 19 20 21 22 23 24 25 26 27 28 29 30 31 32 33 34 35 36 37 38 39 40 41 42 43 44 45 46 47 48 49 50
000
FTUS45 KBOU 221132
TAFDEN
TAF
KDEN 221132Z 2212/2318 03009KT P6SM SCT006 OVC009
      TEMPO 2212/2215 3SM -DZ BR OVC006
     FM221500 03008KT P6SM SCT008 OVC015
     FM221800 03007KT P6SM SCT015 BKN025
     FM222100 04007KT P6SM BKN040
     FM230300 VRB05KT P6SM BKN030
     FM231100 14005KT P6SM SCT060
     FM231400 17007KT P6SM BKN070=

USA.gov is the U.S. government's official web portal to all federal, state and local government web resources and services.